Island Fox — FOX — position and weather

sailwx.info

Track history (hours):
 
Tides and Currents Weather Stations Pressure Air Temp Water Temp Dewpoint Dewpoint Depression Visibility Wind Speed Wind Dir Waves Ship Positions

Island Fox

Last reported at 2017-Sep-13 09:40 UTC. Time now 2017-Sep-22 20:39 UTC.
Position N 34°09' W 119°12'.
Warning: this ship's position is 9 days out of date.

Length 28 m; draft 3 m.

Type: Military. MMSI: 368926007.

Date/timePositionNaut miles runAvg speedWind from/ knotsBaromVisibWave heightAir tempDewpointWater temp
2017-Sep-13 09:40N 34°09' W 119°12'0 0.0
2017-Sep-13 09:30N 34°09' W 119°12'0 0.0
2017-Sep-13 09:00N 34°09' W 119°12'0 0.0
2017-Sep-13 08:30N 34°09' W 119°12'0 0.0
2017-Sep-13 08:00N 34°09' W 119°12'0 0.0
2017-Sep-13 07:30N 34°09' W 119°12'3 4.6
2017-Sep-13 06:55N 34°07' W 119°12'512.2
2017-Sep-13 06:30N 34°02' W 119°08'612.2
2017-Sep-13 06:00N 33°57' W 119°04'612.1
2017-Sep-13 05:30N 33°52' W 119°00'612.0
2017-Sep-13 05:00N 33°47' W 118°56'611.8
2017-Sep-13 04:30N 33°43' W 118°52'1011.7
2017-Sep-13 03:40N 33°34' W 118°46'211.8
2017-Sep-13 03:30N 33°33' W 118°44'611.8
2017-Sep-13 03:00N 33°28' W 118°41'612.2
2017-Sep-13 02:30N 33°22' W 118°37'612.0
2017-Sep-13 02:00N 33°17' W 118°33'612.0
2017-Sep-13 01:30N 33°12' W 118°29'11 9.1
2017-Sep-13 00:21N 33°03' W 118°22'4 9.0
2017-Sep-12 23:57N 33°00' W 118°20'6 8.9
2017-Sep-12 23:15N 32°55' W 118°16'2 9.1
2017-Sep-12 23:00N 32°53' W 118°14'4 9.0
2017-Sep-12 22:30N 32°50' W 118°11'5 9.3
2017-Sep-12 22:00N 32°46' W 118°07'5 9.0
2017-Sep-12 21:30N 32°43' W 118°04'4 8.7
2017-Sep-12 21:00N 32°39' W 118°01'4 8.7
2017-Sep-12 20:30N 32°36' W 117°58'4 8.7
2017-Sep-12 20:00N 32°32' W 117°55'3 4.1
2017-Sep-12 19:23N 32°30' W 117°53'2 4.5
2017-Sep-12 19:00N 32°32' W 117°52'1 1.5
2017-Sep-12 18:30N 32°31' W 117°52'4 8.5
2017-Sep-12 18:00N 32°27' W 117°54'4 8.7
2017-Sep-12 17:30N 32°26' W 117°49'611.2
2017-Sep-12 16:59N 32°31' W 117°45'4 7.4
2017-Sep-12 16:30N 32°34' W 117°45'5 9.2
2017-Sep-12 16:00N 32°38' W 117°48'611.3
2017-Sep-12 15:30N 32°42' W 117°53'611.3
2017-Sep-12 15:00N 32°47' W 117°57'611.1
2017-Sep-12 14:30N 32°51' W 118°01'611.0
2017-Sep-12 14:00N 32°55' W 118°05'510.9
2017-Sep-12 13:30N 32°60' W 118°09'511.0
2017-Sep-12 13:00N 33°04' W 118°13'1811.0
2017-Sep-12 11:21N 33°17' W 118°29'511.3
2017-Sep-12 10:54N 33°21' W 118°33'411.2
2017-Sep-12 10:30N 33°24' W 118°36'611.1
2017-Sep-12 09:56N 33°29' W 118°40'510.9
2017-Sep-12 09:29N 33°33' W 118°44'511.1
2017-Sep-12 09:00N 33°37' W 118°48'611.2
2017-Sep-12 08:30N 33°42' W 118°52'511.1
2017-Sep-12 08:00N 33°46' W 118°56'611.1
2017-Sep-12 07:30N 33°51' W 118°60'611.3
2017-Sep-12 07:00N 33°55' W 119°04'611.5
2017-Sep-12 06:30N 34°01' W 119°07'510.9
2017-Sep-12 06:00N 34°05' W 119°11'5 9.0
2017-Sep-12 05:29N 34°09' W 119°13'0 0.1
2017-Sep-12 05:00N 34°09' W 119°12'0 0.0
2017-Sep-11 21:40N 34°09' W 119°12'0 1.7
2017-Sep-11 21:28N 34°09' W 119°12'0 0.1
2017-Sep-11 20:58N 34°09' W 119°12'0 0.0
2017-Sep-11 20:30N 34°09' W 119°12'0 0.0
2017-Sep-11 20:00N 34°09' W 119°12'0 0.1
2017-Sep-11 16:16N 34°09' W 119°12'0 0.0
2017-Sep-11 15:57N 34°09' W 119°12'0 0.0
2017-Sep-11 15:29N 34°09' W 119°12'  
2017-Sep-08 05:59N 34°09' W 119°12'3 6.8
2017-Sep-08 05:30N 34°06' W 119°15'611.4
2017-Sep-08 05:00N 34°01' W 119°18'612.6
2017-Sep-08 04:31N 33°55' W 119°20'611.6
2017-Sep-08 04:00N 33°50' W 119°20'612.2
2017-Sep-08 03:30N 33°44' W 119°16'611.6
2017-Sep-08 03:00N 33°39' W 119°12'611.9
2017-Sep-08 02:30N 33°34' W 119°09'612.1
2017-Sep-08 01:58N 33°29' W 119°05'612.2
2017-Sep-08 01:30N 33°24' W 119°01'612.0
2017-Sep-08 01:00N 33°19' W 118°57'612.3
2017-Sep-08 00:30N 33°14' W 118°54'612.5
2017-Sep-08 00:00N 33°08' W 118°52'612.4
2017-Sep-07 23:30N 33°02' W 118°50'611.1
2017-Sep-07 23:00N 32°56' W 118°49'4 7.5
2017-Sep-07 22:30N 32°52' W 118°49'710.0
2017-Sep-07 21:48N 32°47' W 118°44'3 8.1
2017-Sep-07 21:27N 32°44' W 118°42'6 9.9
2017-Sep-07 20:52N 32°40' W 118°38'4 9.8
2017-Sep-07 20:30N 32°38' W 118°34'2 3.7
2017-Sep-07 19:59N 32°38' W 118°32'1 2.6
2017-Sep-07 19:30N 32°38' W 118°34'5 9.5
2017-Sep-07 19:00N 32°33' W 118°33'510.2
2017-Sep-07 18:30N 32°28' W 118°32'510.2
2017-Sep-07 18:00N 32°23' W 118°29'1 1.2
2017-Sep-07 17:28N 32°24' W 118°29'1 3.1
2017-Sep-07 17:00N 32°23' W 118°28'2 3.4
2017-Sep-07 16:30N 32°21' W 118°27'0 0.8
2017-Sep-07 15:55N 32°22' W 118°28'2 4.8
2017-Sep-07 15:28N 32°23' W 118°30'2 5.2
2017-Sep-07 14:59N 32°24' W 118°32'1 2.1
2017-Sep-07 14:29N 32°24' W 118°31'3 5.0
2017-Sep-07 13:57N 32°26' W 118°33'3 5.3
2017-Sep-07 13:21N 32°28' W 118°36'2 5.1
2017-Sep-07 13:00N 32°29' W 118°37'2 4.6
2017-Sep-07 12:28N 32°32' W 118°37'511.1
2017-Sep-07 12:00N 32°34' W 118°32'3 6.1
2017-Sep-07 11:30N 32°37' W 118°33'3 6.2
2017-Sep-07 10:58N 32°41' W 118°32'711.8
2017-Sep-07 10:21N 32°44' W 118°24'511.8
2017-Sep-07 09:57N 32°48' W 118°21'510.4
2017-Sep-07 09:30N 32°53' W 118°23'611.4
2017-Sep-07 09:00N 32°57' W 118°28'511.1
2017-Sep-07 08:30N 33°00' W 118°33'0 0.6
2017-Sep-07 08:00N 33°00' W 118°33'0 0.0
2017-Sep-07 07:30N 33°00' W 118°33'0 0.0
2017-Sep-07 06:52N 33°00' W 118°33'0 0.0
2017-Sep-07 05:34N 33°00' W 118°33'0 0.0
2017-Sep-07 05:16N 33°00' W 118°33'0 0.0
2017-Sep-07 04:49N 33°00' W 118°33'0 0.0
2017-Sep-07 04:28N 33°00' W 118°33'0 0.0
2017-Sep-07 03:58N 33°00' W 118°33'0 0.0
2017-Sep-07 03:25N 33°00' W 118°33'0 0.0
2017-Sep-07 02:52N 33°00' W 118°33'0 0.0
2017-Sep-07 02:28N 33°00' W 118°33'0 0.0
2017-Sep-07 01:58N 33°00' W 118°33'0 0.0
2017-Sep-07 01:28N 33°00' W 118°33'0 0.0
2017-Sep-07 00:22N 33°00' W 118°33'0 0.0
2017-Sep-06 23:52N 33°00' W 118°33'0 0.0
2017-Sep-06 23:28N 33°00' W 118°33'0 0.0
2017-Sep-06 21:28N 33°00' W 118°33'0 0.0
2017-Sep-06 20:52N 33°00' W 118°33'0 0.0
2017-Sep-06 19:07N 33°00' W 118°33'0 0.0
2017-Sep-06 18:52N 33°00' W 118°33'0 0.0
2017-Sep-06 18:22N 33°00' W 118°33'0 0.0
2017-Sep-06 17:58N 33°00' W 118°33'0 0.0
2017-Sep-06 16:46N 33°00' W 118°33'0 0.0
2017-Sep-06 16:22N 33°00' W 118°33'0 0.0
2017-Sep-06 15:58N 33°00' W 118°33'0 0.0
2017-Sep-06 14:52N 33°00' W 118°33'0 0.0
2017-Sep-06 14:30N 33°00' W 118°33'0 0.0
2017-Sep-06 14:00N 33°00' W 118°33'0 0.0
2017-Sep-06 13:30N 33°00' W 118°33'0 0.0
2017-Sep-06 13:00N 33°00' W 118°33'0 0.0
2017-Sep-06 12:04N 33°00' W 118°33'0 0.1
2017-Sep-06 11:58N 33°00' W 118°33'0 0.0
2017-Sep-06 11:30N 33°00' W 118°33'0 0.0
2017-Sep-06 10:57N 33°00' W 118°33'0 0.0
2017-Sep-06 10:30N 33°00' W 118°33'0 0.7
2017-Sep-06 10:00N 33°01' W 118°33'5 9.2
2017-Sep-06 09:27N 32°57' W 118°29'511.9
2017-Sep-06 09:00N 32°54' W 118°25'611.2
2017-Sep-06 08:30N 32°49' W 118°21'510.3
2017-Sep-06 08:00N 32°44' W 118°22'611.2
2017-Sep-06 07:30N 32°39' W 118°25'510.4
2017-Sep-06 07:00N 32°34' W 118°28'5 9.5
2017-Sep-06 06:30N 32°31' W 118°32'2 3.0
2017-Sep-06 06:00N 32°32' W 118°33'2 4.7
2017-Sep-06 05:30N 32°34' W 118°33'1 1.6
2017-Sep-06 05:00N 32°35' W 118°33'2 3.5
2017-Sep-06 04:30N 32°33' W 118°33'2 3.0
2017-Sep-06 04:00N 32°32' W 118°34'2 3.0
2017-Sep-06 03:30N 32°30' W 118°34'2 3.8
2017-Sep-06 03:00N 32°28' W 118°34'2 3.4
2017-Sep-06 02:30N 32°27' W 118°34'2 2.9
2017-Sep-06 01:55N 32°28' W 118°32'2 4.0
2017-Sep-06 01:30N 32°29' W 118°33'3 5.9
2017-Sep-06 01:00N 32°32' W 118°35'1 2.2
2017-Sep-06 00:30N 32°33' W 118°35'2 4.6
2017-Sep-05 23:59N 32°30' W 118°35'1 1.7
2017-Sep-05 23:25N 32°31' W 118°35'3 6.9
2017-Sep-05 23:00N 32°34' W 118°37'4 8.6
2017-Sep-05 22:30N 32°38' W 118°38'611.1
2017-Sep-05 22:00N 32°43' W 118°40'611.0
2017-Sep-05 21:30N 32°48' W 118°42'510.8
2017-Sep-05 21:00N 32°54' W 118°43'2310.5
2017-Sep-05 18:50N 33°15' W 118°51'610.4
2017-Sep-05 18:18N 33°21' W 118°53'310.3
2017-Sep-05 18:00N 33°23' W 118°54'510.4
2017-Sep-05 17:29N 33°28' W 118°57'510.2
2017-Sep-05 17:01N 33°33' W 118°59'510.3
2017-Sep-05 16:30N 33°38' W 119°01'510.1
2017-Sep-05 16:00N 33°43' W 119°03'510.2
2017-Sep-05 15:30N 33°47' W 119°05'510.2
2017-Sep-05 15:00N 33°52' W 119°08'510.3
2017-Sep-05 14:31N 33°57' W 119°10'510.3
2017-Sep-05 14:00N 34°02' W 119°12'610.3
2017-Sep-05 13:26N 34°07' W 119°13'2 4.3
2017-Sep-05 13:00N 34°09' W 119°12'0 0.0
2017-Sep-05 12:30N 34°09' W 119°12'0 0.0
2017-Sep-04 15:22N 34°09' W 119°12'0 0.0
2017-Sep-04 15:00N 34°09' W 119°12'  
Track history (hours):
 
Tides and Currents Weather Stations Pressure Air Temp Water Temp Dewpoint Dewpoint Depression Visibility Wind Speed Wind Dir Waves Ship Positions

Island Fox

Last reported at 2017-Sep-13 09:40 UTC. Time now 2017-Sep-22 20:39 UTC.
Position N 34°09' W 119°12'.
Warning: this ship's position is 9 days out of date.

Length 28 m; draft 3 m.

Type: Military. MMSI: 368926007.

Date/timePositionNaut miles runAvg speedWind from/ knotsBaromVisibWave heightAir tempDewpointWater temp
2017-Sep-13 09:40N 34°09' W 119°12'0 0.0
2017-Sep-13 09:30N 34°09' W 119°12'0 0.0
2017-Sep-13 09:00N 34°09' W 119°12'0 0.0
2017-Sep-13 08:30N 34°09' W 119°12'0 0.0
2017-Sep-13 08:00N 34°09' W 119°12'0 0.0
2017-Sep-13 07:30N 34°09' W 119°12'3 4.6
2017-Sep-13 06:55N 34°07' W 119°12'512.2
2017-Sep-13 06:30N 34°02' W 119°08'612.2
2017-Sep-13 06:00N 33°57' W 119°04'612.1
2017-Sep-13 05:30N 33°52' W 119°00'612.0
2017-Sep-13 05:00N 33°47' W 118°56'611.8
2017-Sep-13 04:30N 33°43' W 118°52'1011.7
2017-Sep-13 03:40N 33°34' W 118°46'211.8
2017-Sep-13 03:30N 33°33' W 118°44'611.8
2017-Sep-13 03:00N 33°28' W 118°41'612.2
2017-Sep-13 02:30N 33°22' W 118°37'612.0
2017-Sep-13 02:00N 33°17' W 118°33'612.0
2017-Sep-13 01:30N 33°12' W 118°29'11 9.1
2017-Sep-13 00:21N 33°03' W 118°22'4 9.0
2017-Sep-12 23:57N 33°00' W 118°20'6 8.9
2017-Sep-12 23:15N 32°55' W 118°16'2 9.1
2017-Sep-12 23:00N 32°53' W 118°14'4 9.0
2017-Sep-12 22:30N 32°50' W 118°11'5 9.3
2017-Sep-12 22:00N 32°46' W 118°07'5 9.0
2017-Sep-12 21:30N 32°43' W 118°04'4 8.7
2017-Sep-12 21:00N 32°39' W 118°01'4 8.7
2017-Sep-12 20:30N 32°36' W 117°58'4 8.7
2017-Sep-12 20:00N 32°32' W 117°55'3 4.1
2017-Sep-12 19:23N 32°30' W 117°53'2 4.5
2017-Sep-12 19:00N 32°32' W 117°52'1 1.5
2017-Sep-12 18:30N 32°31' W 117°52'4 8.5
2017-Sep-12 18:00N 32°27' W 117°54'4 8.7
2017-Sep-12 17:30N 32°26' W 117°49'611.2
2017-Sep-12 16:59N 32°31' W 117°45'4 7.4
2017-Sep-12 16:30N 32°34' W 117°45'5 9.2
2017-Sep-12 16:00N 32°38' W 117°48'611.3
2017-Sep-12 15:30N 32°42' W 117°53'611.3
2017-Sep-12 15:00N 32°47' W 117°57'611.1
2017-Sep-12 14:30N 32°51' W 118°01'611.0
2017-Sep-12 14:00N 32°55' W 118°05'510.9
2017-Sep-12 13:30N 32°60' W 118°09'511.0
2017-Sep-12 13:00N 33°04' W 118°13'1811.0
2017-Sep-12 11:21N 33°17' W 118°29'511.3
2017-Sep-12 10:54N 33°21' W 118°33'411.2
2017-Sep-12 10:30N 33°24' W 118°36'611.1
2017-Sep-12 09:56N 33°29' W 118°40'510.9
2017-Sep-12 09:29N 33°33' W 118°44'511.1
2017-Sep-12 09:00N 33°37' W 118°48'611.2
2017-Sep-12 08:30N 33°42' W 118°52'511.1
2017-Sep-12 08:00N 33°46' W 118°56'611.1
2017-Sep-12 07:30N 33°51' W 118°60'611.3
2017-Sep-12 07:00N 33°55' W 119°04'611.5
2017-Sep-12 06:30N 34°01' W 119°07'510.9
2017-Sep-12 06:00N 34°05' W 119°11'5 9.0
2017-Sep-12 05:29N 34°09' W 119°13'0 0.1
2017-Sep-12 05:00N 34°09' W 119°12'0 0.0
2017-Sep-11 21:40N 34°09' W 119°12'0 1.7
2017-Sep-11 21:28N 34°09' W 119°12'0 0.1
2017-Sep-11 20:58N 34°09' W 119°12'0 0.0
2017-Sep-11 20:30N 34°09' W 119°12'0 0.0
2017-Sep-11 20:00N 34°09' W 119°12'0 0.1
2017-Sep-11 16:16N 34°09' W 119°12'0 0.0
2017-Sep-11 15:57N 34°09' W 119°12'0 0.0
2017-Sep-11 15:29N 34°09' W 119°12'  
2017-Sep-08 05:59N 34°09' W 119°12'3 6.8
2017-Sep-08 05:30N 34°06' W 119°15'611.4
2017-Sep-08 05:00N 34°01' W 119°18'612.6
2017-Sep-08 04:31N 33°55' W 119°20'611.6
2017-Sep-08 04:00N 33°50' W 119°20'612.2
2017-Sep-08 03:30N 33°44' W 119°16'611.6
2017-Sep-08 03:00N 33°39' W 119°12'611.9
2017-Sep-08 02:30N 33°34' W 119°09'612.1
2017-Sep-08 01:58N 33°29' W 119°05'612.2
2017-Sep-08 01:30N 33°24' W 119°01'612.0
2017-Sep-08 01:00N 33°19' W 118°57'612.3
2017-Sep-08 00:30N 33°14' W 118°54'612.5
2017-Sep-08 00:00N 33°08' W 118°52'612.4
2017-Sep-07 23:30N 33°02' W 118°50'611.1
2017-Sep-07 23:00N 32°56' W 118°49'4 7.5
2017-Sep-07 22:30N 32°52' W 118°49'710.0
2017-Sep-07 21:48N 32°47' W 118°44'3 8.1
2017-Sep-07 21:27N 32°44' W 118°42'6 9.9
2017-Sep-07 20:52N 32°40' W 118°38'4 9.8
2017-Sep-07 20:30N 32°38' W 118°34'2 3.7
2017-Sep-07 19:59N 32°38' W 118°32'1 2.6
2017-Sep-07 19:30N 32°38' W 118°34'5 9.5
2017-Sep-07 19:00N 32°33' W 118°33'510.2
2017-Sep-07 18:30N 32°28' W 118°32'510.2
2017-Sep-07 18:00N 32°23' W 118°29'1 1.2
2017-Sep-07 17:28N 32°24' W 118°29'1 3.1
2017-Sep-07 17:00N 32°23' W 118°28'2 3.4
2017-Sep-07 16:30N 32°21' W 118°27'0 0.8
2017-Sep-07 15:55N 32°22' W 118°28'2 4.8
2017-Sep-07 15:28N 32°23' W 118°30'2 5.2
2017-Sep-07 14:59N 32°24' W 118°32'1 2.1
2017-Sep-07 14:29N 32°24' W 118°31'3 5.0
2017-Sep-07 13:57N 32°26' W 118°33'3 5.3
2017-Sep-07 13:21N 32°28' W 118°36'2 5.1
2017-Sep-07 13:00N 32°29' W 118°37'2 4.6
2017-Sep-07 12:28N 32°32' W 118°37'511.1
2017-Sep-07 12:00N 32°34' W 118°32'3 6.1
2017-Sep-07 11:30N 32°37' W 118°33'3 6.2
2017-Sep-07 10:58N 32°41' W 118°32'711.8
2017-Sep-07 10:21N 32°44' W 118°24'511.8
2017-Sep-07 09:57N 32°48' W 118°21'510.4
2017-Sep-07 09:30N 32°53' W 118°23'611.4
2017-Sep-07 09:00N 32°57' W 118°28'511.1
2017-Sep-07 08:30N 33°00' W 118°33'0 0.6
2017-Sep-07 08:00N 33°00' W 118°33'0 0.0
2017-Sep-07 07:30N 33°00' W 118°33'0 0.0
2017-Sep-07 06:52N 33°00' W 118°33'0 0.0
2017-Sep-07 05:34N 33°00' W 118°33'0 0.0
2017-Sep-07 05:16N 33°00' W 118°33'0 0.0
2017-Sep-07 04:49N 33°00' W 118°33'0 0.0
2017-Sep-07 04:28N 33°00' W 118°33'0 0.0
2017-Sep-07 03:58N 33°00' W 118°33'0 0.0
2017-Sep-07 03:25N 33°00' W 118°33'0 0.0
2017-Sep-07 02:52N 33°00' W 118°33'0 0.0
2017-Sep-07 02:28N 33°00' W 118°33'0 0.0
2017-Sep-07 01:58N 33°00' W 118°33'0 0.0
2017-Sep-07 01:28N 33°00' W 118°33'0 0.0
2017-Sep-07 00:22N 33°00' W 118°33'0 0.0
2017-Sep-06 23:52N 33°00' W 118°33'0 0.0
2017-Sep-06 23:28N 33°00' W 118°33'0 0.0
2017-Sep-06 21:28N 33°00' W 118°33'0 0.0
2017-Sep-06 20:52N 33°00' W 118°33'0 0.0
2017-Sep-06 19:07N 33°00' W 118°33'0 0.0
2017-Sep-06 18:52N 33°00' W 118°33'0 0.0
2017-Sep-06 18:22N 33°00' W 118°33'0 0.0
2017-Sep-06 17:58N 33°00' W 118°33'0 0.0
2017-Sep-06 16:46N 33°00' W 118°33'0 0.0
2017-Sep-06 16:22N 33°00' W 118°33'0 0.0
2017-Sep-06 15:58N 33°00' W 118°33'0 0.0
2017-Sep-06 14:52N 33°00' W 118°33'0 0.0
2017-Sep-06 14:30N 33°00' W 118°33'0 0.0
2017-Sep-06 14:00N 33°00' W 118°33'0 0.0
2017-Sep-06 13:30N 33°00' W 118°33'0 0.0
2017-Sep-06 13:00N 33°00' W 118°33'0 0.0
2017-Sep-06 12:04N 33°00' W 118°33'0 0.1
2017-Sep-06 11:58N 33°00' W 118°33'0 0.0
2017-Sep-06 11:30N 33°00' W 118°33'0 0.0
2017-Sep-06 10:57N 33°00' W 118°33'0 0.0
2017-Sep-06 10:30N 33°00' W 118°33'0 0.7
2017-Sep-06 10:00N 33°01' W 118°33'5 9.2
2017-Sep-06 09:27N 32°57' W 118°29'511.9
2017-Sep-06 09:00N 32°54' W 118°25'611.2
2017-Sep-06 08:30N 32°49' W 118°21'510.3
2017-Sep-06 08:00N 32°44' W 118°22'611.2
2017-Sep-06 07:30N 32°39' W 118°25'510.4
2017-Sep-06 07:00N 32°34' W 118°28'5 9.5
2017-Sep-06 06:30N 32°31' W 118°32'2 3.0
2017-Sep-06 06:00N 32°32' W 118°33'2 4.7
2017-Sep-06 05:30N 32°34' W 118°33'1 1.6
2017-Sep-06 05:00N 32°35' W 118°33'2 3.5
2017-Sep-06 04:30N 32°33' W 118°33'2 3.0
2017-Sep-06 04:00N 32°32' W 118°34'2 3.0
2017-Sep-06 03:30N 32°30' W 118°34'2 3.8
2017-Sep-06 03:00N 32°28' W 118°34'2 3.4
2017-Sep-06 02:30N 32°27' W 118°34'2 2.9
2017-Sep-06 01:55N 32°28' W 118°32'2 4.0
2017-Sep-06 01:30N 32°29' W 118°33'3 5.9
2017-Sep-06 01:00N 32°32' W 118°35'1 2.2
2017-Sep-06 00:30N 32°33' W 118°35'2 4.6
2017-Sep-05 23:59N 32°30' W 118°35'1 1.7
2017-Sep-05 23:25N 32°31' W 118°35'3 6.9
2017-Sep-05 23:00N 32°34' W 118°37'4 8.6
2017-Sep-05 22:30N 32°38' W 118°38'611.1
2017-Sep-05 22:00N 32°43' W 118°40'611.0
2017-Sep-05 21:30N 32°48' W 118°42'510.8
2017-Sep-05 21:00N 32°54' W 118°43'2310.5
2017-Sep-05 18:50N 33°15' W 118°51'610.4
2017-Sep-05 18:18N 33°21' W 118°53'310.3
2017-Sep-05 18:00N 33°23' W 118°54'510.4
2017-Sep-05 17:29N 33°28' W 118°57'510.2
2017-Sep-05 17:01N 33°33' W 118°59'510.3
2017-Sep-05 16:30N 33°38' W 119°01'510.1
2017-Sep-05 16:00N 33°43' W 119°03'510.2
2017-Sep-05 15:30N 33°47' W 119°05'510.2
2017-Sep-05 15:00N 33°52' W 119°08'510.3
2017-Sep-05 14:31N 33°57' W 119°10'510.3
2017-Sep-05 14:00N 34°02' W 119°12'610.3
2017-Sep-05 13:26N 34°07' W 119°13'2 4.3
2017-Sep-05 13:00N 34°09' W 119°12'0 0.0
2017-Sep-05 12:30N 34°09' W 119°12'0 0.0
2017-Sep-04 15:22N 34°09' W 119°12'0 0.0
2017-Sep-04 15:00N 34°09' W 119°12'  

Dump ship's entire track history